createdAt,value
2022-09-13T00:03:30.928Z,15.48
2022-09-13T00:07:33.252Z,15.40
2022-09-13T00:11:35.403Z,15.27
2022-09-13T00:15:43.020Z,15.06
2022-09-13T00:19:46.232Z,15.11
2022-09-13T00:23:52.642Z,15.15
2022-09-13T00:27:56.116Z,15.18
2022-09-13T00:31:58.773Z,15.21
2022-09-13T00:36:12.167Z,15.31
2022-09-13T00:40:16.273Z,15.28
2022-09-13T00:44:57.773Z,15.31
2022-09-13T00:49:32.008Z,15.25
2022-09-13T00:53:38.821Z,15.21
2022-09-13T00:57:41.560Z,15.18
2022-09-13T01:01:55.598Z,15.17
2022-09-13T01:06:07.716Z,15.10
2022-09-13T01:10:10.682Z,14.89
2022-09-13T01:14:13.691Z,14.84
2022-09-13T01:18:17.113Z,14.86
2022-09-13T01:22:45.237Z,14.80
2022-09-13T01:26:59.540Z,14.82
2022-09-13T01:31:10.087Z,14.71
2022-09-13T01:35:18.653Z,14.59
2022-09-13T01:39:51.474Z,14.42
2022-09-13T01:44:15.385Z,14.47
2022-09-13T01:48:30.385Z,14.51
2022-09-13T01:52:54.393Z,14.52
2022-09-13T01:57:20.325Z,14.51
2022-09-13T02:01:30.592Z,14.48
2022-09-13T02:05:42.835Z,14.07
2022-09-13T02:09:50.663Z,13.98
2022-09-13T02:14:07.457Z,13.93
2022-09-13T02:18:36.571Z,14.00
2022-09-13T02:22:44.964Z,14.06
2022-09-13T02:26:52.958Z,14.09
2022-09-13T02:30:58.642Z,14.13
2022-09-13T02:35:06.883Z,14.15
2022-09-13T02:39:23.915Z,14.16
2022-09-13T02:43:39.708Z,14.10
2022-09-13T02:47:45.415Z,13.89
2022-09-13T02:52:25.347Z,13.82
2022-09-13T02:56:52.427Z,13.76
2022-09-13T03:00:55.999Z,13.82
2022-09-13T03:04:59.589Z,13.82
2022-09-13T03:09:05.577Z,13.92
2022-09-13T03:13:45.535Z,13.70
2022-09-13T03:18:01.519Z,13.54
2022-09-13T03:22:26.361Z,13.57
2022-09-13T03:26:28.464Z,13.51
2022-09-13T03:30:34.481Z,13.69
2022-09-13T03:34:53.258Z,13.78
2022-09-13T03:39:30.196Z,13.79
2022-09-13T03:43:36.153Z,13.75
2022-09-13T03:47:43.778Z,13.75
2022-09-13T03:51:51.294Z,13.75
2022-09-13T03:55:54.844Z,13.62
2022-09-13T03:59:57.763Z,13.53
2022-09-13T04:04:00.649Z,13.48
2022-09-13T04:08:08.165Z,13.41
2022-09-13T04:12:10.726Z,13.37
2022-09-13T04:16:12.799Z,13.38
2022-09-13T04:20:15.034Z,13.34
2022-09-13T04:24:18.210Z,13.28
2022-09-13T04:28:21.816Z,13.26
2022-09-13T04:32:24.127Z,13.28
2022-09-13T04:36:26.925Z,13.30
2022-09-13T04:40:29.866Z,13.31
2022-09-13T04:44:32.568Z,13.30
2022-09-13T04:48:38.599Z,13.31
2022-09-13T04:52:44.561Z,13.36
2022-09-13T04:56:47.827Z,13.33
2022-09-13T05:00:51.744Z,13.26
2022-09-13T05:04:57.120Z,13.17
2022-09-13T05:09:03.332Z,13.12
2022-09-13T05:13:06.939Z,13.15
2022-09-13T05:17:10.952Z,13.20
2022-09-13T05:21:14.949Z,13.19
2022-09-13T05:25:17.417Z,13.21
2022-09-13T05:29:20.303Z,13.26
2022-09-13T05:33:23.096Z,13.42
2022-09-13T05:37:25.195Z,13.57
2022-09-13T05:41:28.073Z,13.63
2022-09-13T05:45:31.480Z,13.66
2022-09-13T05:49:50.053Z,13.66
2022-09-13T05:53:59.682Z,13.83
2022-09-13T05:58:03.481Z,14.03
2022-09-13T06:02:05.932Z,14.23
2022-09-13T06:06:09.264Z,14.42
2022-09-13T06:10:12.764Z,14.61
2022-09-13T06:14:15.429Z,14.78
2022-09-13T06:18:18.103Z,14.93
2022-09-13T06:22:20.827Z,15.10
2022-09-13T06:26:25.927Z,15.16
2022-09-13T06:30:28.272Z,15.29
2022-09-13T06:34:31.463Z,15.52
2022-09-13T06:38:36.928Z,15.73
2022-09-13T06:42:41.008Z,15.94
2022-09-13T06:46:45.315Z,16.11
2022-09-13T06:50:49.305Z,16.31
2022-09-13T06:54:55.175Z,16.48
2022-09-13T06:59:01.408Z,16.65
2022-09-13T07:03:03.757Z,16.78
2022-09-13T07:07:06.200Z,16.97
2022-09-13T07:11:10.048Z,17.13
2022-09-13T07:15:13.160Z,17.31
2022-09-13T07:19:20.573Z,17.55
2022-09-13T07:23:23.208Z,17.74
2022-09-13T07:27:25.389Z,17.99
2022-09-13T07:31:30.753Z,18.26
2022-09-13T07:35:33.427Z,18.48
2022-09-13T07:39:36.115Z,18.72
2022-09-13T07:43:38.479Z,18.98
2022-09-13T07:47:41.326Z,19.23
2022-09-13T07:51:44.328Z,19.33
2022-09-13T07:55:46.611Z,19.58
2022-09-13T07:59:48.773Z,19.75
2022-09-13T08:03:58.417Z,19.82
2022-09-13T08:08:00.549Z,20.07
2022-09-13T08:12:03.305Z,20.27
2022-09-13T08:16:07.189Z,20.35
2022-09-13T08:20:10.512Z,20.53
2022-09-13T08:24:18.859Z,20.76
2022-09-13T08:28:27.378Z,20.98
2022-09-13T08:32:30.186Z,21.09
2022-09-13T08:36:32.225Z,21.25
2022-09-13T08:40:41.954Z,21.37
2022-09-13T08:44:54.950Z,21.57
2022-09-13T08:49:18.795Z,21.73
2022-09-13T08:53:26.462Z,21.85
2022-09-13T08:57:41.550Z,22.06
2022-09-13T09:02:17.787Z,22.20
2022-09-13T09:06:22.311Z,22.36
2022-09-13T09:10:45.140Z,22.53
2022-09-13T09:14:58.359Z,22.62
2022-09-13T09:19:12.127Z,22.78
2022-09-13T09:23:27.201Z,22.91
2022-09-13T09:27:32.777Z,22.98
2022-09-13T09:31:55.382Z,23.05
2022-09-13T09:36:11.417Z,23.27
2022-09-13T09:40:17.557Z,23.32
2022-09-13T09:44:24.182Z,23.61
2022-09-13T09:48:31.766Z,23.67
2022-09-13T09:52:42.964Z,23.77
2022-09-13T09:56:55.431Z,23.87
2022-09-13T10:00:59.054Z,23.95
2022-09-13T10:05:03.222Z,24.06
2022-09-13T10:09:14.667Z,24.18
2022-09-13T10:13:21.224Z,24.31
2022-09-13T10:17:25.903Z,24.60
2022-09-13T10:21:28.261Z,24.75
2022-09-13T10:25:31.957Z,24.81
2022-09-13T10:29:34.529Z,24.62
2022-09-13T10:33:40.221Z,24.66
2022-09-13T10:37:44.885Z,24.76
2022-09-13T10:42:08.097Z,24.90
2022-09-13T10:46:24.896Z,25.01
2022-09-13T10:50:31.403Z,25.14
2022-09-13T10:54:34.262Z,25.42
2022-09-13T10:58:36.560Z,25.46
2022-09-13T11:02:50.476Z,25.38
2022-09-13T11:07:28.267Z,25.47
2022-09-13T11:11:39.351Z,25.52
2022-09-13T11:16:01.313Z,25.62
2022-09-13T11:20:15.536Z,25.97
2022-09-13T11:24:42.471Z,25.84
2022-09-13T11:29:05.872Z,25.84
2022-09-13T11:33:29.130Z,25.80
2022-09-13T11:38:00.898Z,25.88
2022-09-13T11:42:12.106Z,26.14
2022-09-13T11:46:32.024Z,26.13
2022-09-13T11:50:52.305Z,26.21
2022-09-13T11:54:55.109Z,26.32
2022-09-13T11:59:22.164Z,26.22
2022-09-13T12:03:31.954Z,26.39
2022-09-13T12:07:55.136Z,26.29
2022-09-13T12:12:11.254Z,26.43
2022-09-13T12:16:23.509Z,26.54
2022-09-13T12:20:42.684Z,26.72
2022-09-13T12:24:55.141Z,26.75
2022-09-13T12:29:02.980Z,26.97
2022-09-13T12:33:06.929Z,27.04
2022-09-13T12:37:52.579Z,27.20
2022-09-13T12:42:25.820Z,27.34
2022-09-13T12:46:48.346Z,27.42
2022-09-13T12:51:12.075Z,27.25
2022-09-13T12:55:46.748Z,27.40
2022-09-13T12:59:49.502Z,27.58
2022-09-13T13:03:58.721Z,27.60
2022-09-13T13:08:21.585Z,27.75
2022-09-13T13:12:39.120Z,27.86
2022-09-13T13:16:44.328Z,27.85
2022-09-13T13:20:55.578Z,27.58
2022-09-13T13:24:57.865Z,27.44
2022-09-13T13:29:04.030Z,27.51
2022-09-13T13:33:16.816Z,27.83
2022-09-13T13:37:18.993Z,28.12
2022-09-13T13:41:33.741Z,28.12
2022-09-13T13:45:36.305Z,28.12
2022-09-13T13:49:41.641Z,28.25
2022-09-13T13:54:24.188Z,28.22
2022-09-13T13:59:09.272Z,28.19
2022-09-13T14:03:27.949Z,28.65
2022-09-13T14:07:39.676Z,28.67
2022-09-13T14:12:10.506Z,28.58
2022-09-13T14:16:37.794Z,28.49
2022-09-13T14:20:59.341Z,28.19
2022-09-13T14:25:21.116Z,28.43
2022-09-13T14:29:26.592Z,28.64
2022-09-13T14:33:37.686Z,28.55
2022-09-13T14:37:40.510Z,28.61
2022-09-13T14:41:43.057Z,28.23
2022-09-13T14:45:48.739Z,28.23
2022-09-13T14:49:58.716Z,28.61
2022-09-13T14:54:17.384Z,28.89
2022-09-13T14:58:26.771Z,28.64
2022-09-13T15:02:37.832Z,28.76
2022-09-13T15:06:41.246Z,28.99
2022-09-13T15:10:44.745Z,29.09
2022-09-13T15:14:48.278Z,29.16
2022-09-13T15:19:27.531Z,29.34
2022-09-13T15:23:34.033Z,29.42
2022-09-13T15:27:48.212Z,29.45
2022-09-13T15:31:50.338Z,29.29
2022-09-13T15:35:56.643Z,29.28
2022-09-13T15:40:11.858Z,29.17
2022-09-13T15:44:14.431Z,29.48
2022-09-13T15:48:30.409Z,29.46
2022-09-13T15:52:33.165Z,29.89
2022-09-13T15:56:40.037Z,32.00
2022-09-13T16:00:42.665Z,33.49
2022-09-13T16:04:44.931Z,33.79
2022-09-13T16:08:48.711Z,33.04
2022-09-13T16:12:51.721Z,32.82
2022-09-13T16:16:56.022Z,33.11
2022-09-13T16:20:58.147Z,32.41
2022-09-13T16:25:00.287Z,32.15
2022-09-13T16:29:02.461Z,31.66
2022-09-13T16:33:04.500Z,31.30
2022-09-13T16:37:06.662Z,31.36
2022-09-13T16:41:08.739Z,30.82
2022-09-13T16:45:11.900Z,30.71
2022-09-13T16:49:14.041Z,30.57
2022-09-13T16:53:16.239Z,29.86
2022-09-13T16:57:18.495Z,29.26
2022-09-13T17:01:24.330Z,28.79
2022-09-13T17:05:27.132Z,28.21
2022-09-13T17:09:31.021Z,27.97
2022-09-13T17:13:34.354Z,27.71
2022-09-13T17:17:37.661Z,27.45
2022-09-13T17:21:40.402Z,27.04
2022-09-13T17:25:49.287Z,26.74
2022-09-13T17:29:52.672Z,25.94
2022-09-13T17:33:55.492Z,25.54
2022-09-13T17:37:59.741Z,24.89
2022-09-13T17:42:02.375Z,24.64
2022-09-13T17:46:12.096Z,24.50
2022-09-13T17:50:15.134Z,24.36
2022-09-13T17:54:17.925Z,24.04
2022-09-13T17:58:20.468Z,23.95
2022-09-13T18:02:23.004Z,23.90
2022-09-13T18:06:25.317Z,23.77
2022-09-13T18:10:53.095Z,23.72
2022-09-13T18:14:51.399Z,23.69
2022-09-13T18:18:54.202Z,23.63
2022-09-13T18:22:56.333Z,23.36
2022-09-13T18:26:59.635Z,23.37
2022-09-13T18:31:05.868Z,23.35
2022-09-13T18:35:10.086Z,23.25
2022-09-13T18:39:20.337Z,23.23
2022-09-13T18:43:23.019Z,23.07
2022-09-13T18:47:25.612Z,22.88
2022-09-13T18:51:30.598Z,22.66
2022-09-13T18:55:39.783Z,22.47
2022-09-13T18:59:42.385Z,22.34
2022-09-13T19:03:54.059Z,22.30
2022-09-13T19:08:00.382Z,22.10
2022-09-13T19:12:05.731Z,22.10
2022-09-13T19:16:11.834Z,22.13
2022-09-13T19:20:15.390Z,22.06
2022-09-13T19:24:19.899Z,22.01
2022-09-13T19:28:23.191Z,21.89
2022-09-13T19:32:25.996Z,21.74
2022-09-13T19:36:34.116Z,21.65
2022-09-13T19:40:41.153Z,21.57
2022-09-13T19:48:50.964Z,21.59
2022-09-13T19:52:53.932Z,21.60
2022-09-13T19:56:58.903Z,21.64
2022-09-13T20:01:03.486Z,21.65
2022-09-13T20:05:06.001Z,21.64
2022-09-13T20:09:09.589Z,21.59
2022-09-13T20:13:12.180Z,21.57
2022-09-13T20:17:14.500Z,21.54
2022-09-13T20:21:18.401Z,21.48
2022-09-13T20:25:21.063Z,21.42
2022-09-13T20:29:25.082Z,21.41
2022-09-13T20:33:27.675Z,21.34
2022-09-13T20:37:30.336Z,21.42
2022-09-13T20:41:34.255Z,21.36
2022-09-13T20:45:36.394Z,21.28
2022-09-13T20:49:38.940Z,21.24
2022-09-13T20:53:42.816Z,21.17
2022-09-13T20:57:44.962Z,21.15
2022-09-13T21:01:48.293Z,21.12
2022-09-13T21:05:50.805Z,21.12
2022-09-13T21:09:54.087Z,21.16
2022-09-13T21:13:59.643Z,21.15
2022-09-13T21:18:02.382Z,21.16
2022-09-13T21:22:06.494Z,21.14
2022-09-13T21:26:14.596Z,21.12
2022-09-13T21:30:17.208Z,20.98
2022-09-13T21:34:20.030Z,20.91
2022-09-13T21:38:22.556Z,20.88
2022-09-13T21:42:25.502Z,20.84
2022-09-13T21:46:30.940Z,20.72
2022-09-13T21:50:33.286Z,20.67
2022-09-13T21:54:35.947Z,20.63
2022-09-13T21:58:39.493Z,20.56
2022-09-13T22:02:42.312Z,20.49
2022-09-13T22:06:47.188Z,20.50
2022-09-13T22:10:49.553Z,20.62
2022-09-13T22:14:53.161Z,20.47
2022-09-13T22:19:05.478Z,20.43
2022-09-13T22:23:11.524Z,20.43
2022-09-13T22:27:14.196Z,20.42
2022-09-13T22:31:20.440Z,20.36
2022-09-13T22:35:23.247Z,20.31
2022-09-13T22:39:25.519Z,20.18
2022-09-13T22:43:28.185Z,20.16
2022-09-13T22:47:30.488Z,20.10
2022-09-13T22:51:33.376Z,20.03
2022-09-13T22:55:35.864Z,19.96
2022-09-13T22:59:38.311Z,19.78
2022-09-13T23:03:42.814Z,19.79
2022-09-13T23:07:45.627Z,19.79
2022-09-13T23:11:48.805Z,19.77
2022-09-13T23:15:51.490Z,19.69
2022-09-13T23:19:54.219Z,19.61
2022-09-13T23:23:56.959Z,19.49
2022-09-13T23:28:00.195Z,19.40
2022-09-13T23:32:04.126Z,19.32
2022-09-13T23:36:06.904Z,18.99
2022-09-13T23:40:10.228Z,18.66
2022-09-13T23:44:13.074Z,18.51
2022-09-13T23:48:15.404Z,18.66
2022-09-13T23:52:17.913Z,18.61
2022-09-13T23:56:20.500Z,18.67
